KBTR

Baton Rouge Metropolitan

Airport
ICAO code
KBTR
Summary
ICAO Region
NAM
ICAO Territory
Location

Baton Rouge, Louisiana,

Coordinates
30° 31' 60" N , 91° 8' 59" W
KCC
Airport RE
Engineered Materials Arresting System
Metar
Observation
KBTR 070853Z AUTO 00000KT 10SM CLR 14/13 A3013 RMK AO2 SLP202 T01440133 55000
Station
Baton Rouge, Baton Rouge Metropolitan, Ryan Field
Date/Time
2022-10-07 08:53:00
Wind direction
Wind speed
00 kts
Lowest cloud amount
n/a
Temperature
14.4°C
Dew point
13.3°C
Humidity
93%
Weather condition
n/a

Description

Airport serving city of Baton Rouge, Louisiana, USA.

Climatology

Humid “subtropical” climate (Köppen climate classification Cfa) - characterized by hot, humid summers and cool winters. Significant amounts of precipitation occur in all seasons in most areas. Winter rainfall (and sometimes snowfall) is associated with large storms that the westerlies steer from west to east. Most summer rainfall occurs during thunderstorms and occasional tropical storms (hurricanes).

Airport map

Aerial View

SKYbrary Partners:

Safety knowledge contributed by: